This is the latest recevied weather packets stored in our database for station/object KB8SSH. If no packets are shown the sender has not sent any weather packets the latest 10 day(s).
| Time | Temp. | Humidity | Pressure | Rain* | Wind** | Luminosity | Snow |
|---|---|---|---|---|---|---|---|
| 1777746042 | 10.56° C | 48% | 1050.9 hPa | 0 mm | - | 517 W/m² | - |
| 1777745740 | 10° C | 49% | 1050.9 hPa | 0 mm | - | 806 W/m² | - |
| 1777745438 | 10.56° C | 48% | 1050.9 hPa | 0 mm | - | 371 W/m² | - |
| 1777745134 | 10° C | 48% | 1050.9 hPa | 0 mm | - | 435 W/m² | - |
| 1777744826 | 10° C | 48% | 1050.9 hPa | 0 mm | - | 537 W/m² | - |
| 1777744520 | 8.89° C | 51% | 1050.9 hPa | 0 mm | - | 349 W/m² | - |
| 1777744216 | 9.44° C | 52% | 1050.9 hPa | 0 mm | - | 418 W/m² | - |
| 1777743914 | 9.44° C | 56% | 1050.9 hPa | 0 mm | - | 507 W/m² | - |
| 1777743610 | 8.33° C | 57% | 1050.9 hPa | 0 mm | - | 301 W/m² | - |
| 1777743307 | 8.33° C | 55% | 1050.9 hPa | 0 mm | - | 217 W/m² | - |
| 1777743005 | 8.89° C | 52% | 1050.9 hPa | 0 mm | - | 161 W/m² | - |
| 1777742702 | 9.44° C | 51% | 1050.9 hPa | 0 mm | - | 258 W/m² | - |
| 1777742398 | 9.44° C | 50% | 1050.9 hPa | 0 mm | - | 485 W/m² | - |
| 1777742094 | 8.89° C | 50% | 1050.9 hPa | 0 mm | - | 350 W/m² | - |
| 1777741792 | 9.44° C | 49% | 1050.9 hPa | 0 mm | - | 339 W/m² | - |
| 1777741488 | 9.44° C | 49% | 1051.2 hPa | 0 mm | - | 565 W/m² | - |
| 1777741184 | 8.89° C | 52% | 1050.9 hPa | 0 mm | - | 294 W/m² | - |
| 1777740882 | 8.33° C | 54% | 1050.9 hPa | 0 mm | - | 323 W/m² | - |
| 1777740579 | 8.89° C | 54% | 1050.9 hPa | 0 mm | - | 326 W/m² | - |
| 1777740275 | 8.33° C | 54% | 1050.9 hPa | 0 mm | - | 280 W/m² | - |
| 1777739971 | 8.89° C | 52% | 1050.9 hPa | 0 mm | - | 290 W/m² | - |
| 1777739667 | 8.89° C | 50% | 1051.2 hPa | 0 mm | - | 253 W/m² | - |
| 1777739366 | 8.33° C | 55% | 1050.9 hPa | 0 mm | - | 845 W/m² | - |
| 1777739062 | 8.89° C | 58% | 1051.2 hPa | 0 mm | - | 155 W/m² | - |
| 1777738759 | 9.44° C | 54% | 1051.2 hPa | 0 mm | - | 842 W/m² | - |
* Rain latest hour (hover to see other rain measurements)
** Current wind speed in m/s (hover to see current wind gust speed)